sensor_id;sensor_type;location;lat;lon;timestamp;temperature;humidity
10314;DHT22;5202;49.138;10.090;2023-03-01T00:01:45;-0.50;96.60
10314;DHT22;5202;49.138;10.090;2023-03-01T00:04:14;-0.50;96.50
10314;DHT22;5202;49.138;10.090;2023-03-01T00:06:44;-0.50;96.40
10314;DHT22;5202;49.138;10.090;2023-03-01T00:09:13;-0.60;96.60
10314;DHT22;5202;49.138;10.090;2023-03-01T00:11:41;-0.60;96.60
10314;DHT22;5202;49.138;10.090;2023-03-01T00:14:10;-0.70;96.90
10314;DHT22;5202;49.138;10.090;2023-03-01T00:16:40;-0.80;96.80
10314;DHT22;5202;49.138;10.090;2023-03-01T00:19:12;-0.80;97.20
10314;DHT22;5202;49.138;10.090;2023-03-01T00:21:42;-0.80;97.20
10314;DHT22;5202;49.138;10.090;2023-03-01T00:24:11;-0.70;97.00
10314;DHT22;5202;49.138;10.090;2023-03-01T00:26:40;-0.70;97.20
10314;DHT22;5202;49.138;10.090;2023-03-01T00:29:08;-0.70;97.00
10314;DHT22;5202;49.138;10.090;2023-03-01T00:31:36;-0.70;96.80
10314;DHT22;5202;49.138;10.090;2023-03-01T00:34:05;-0.70;97.20
10314;DHT22;5202;49.138;10.090;2023-03-01T00:36:36;-0.70;97.00
10314;DHT22;5202;49.138;10.090;2023-03-01T00:39:10;-0.70;97.20
10314;DHT22;5202;49.138;10.090;2023-03-01T00:41:40;-0.80;97.00
10314;DHT22;5202;49.138;10.090;2023-03-01T00:44:09;-0.80;97.00
10314;DHT22;5202;49.138;10.090;2023-03-01T00:46:37;-0.90;97.20
10314;DHT22;5202;49.138;10.090;2023-03-01T00:49:06;-0.90;97.10
10314;DHT22;5202;49.138;10.090;2023-03-01T00:51:34;-1.00;97.40
10314;DHT22;5202;49.138;10.090;2023-03-01T00:54:03;-1.00;97.40
10314;DHT22;5202;49.138;10.090;2023-03-01T00:56:33;-1.10;97.90
10314;DHT22;5202;49.138;10.090;2023-03-01T00:59:01;-1.10;98.20
10314;DHT22;5202;49.138;10.090;2023-03-01T01:01:30;-1.10;98.20
10314;DHT22;5202;49.138;10.090;2023-03-01T01:04:01;-1.20;98.10
10314;DHT22;5202;49.138;10.090;2023-03-01T01:06:33;-1.20;98.30
10314;DHT22;5202;49.138;10.090;2023-03-01T01:09:03;-1.40;98.80
10314;DHT22;5202;49.138;10.090;2023-03-01T01:11:35;-1.50;99.00
10314;DHT22;5202;49.138;10.090;2023-03-01T01:14:04;-1.50;99.40
10314;DHT22;5202;49.138;10.090;2023-03-01T01:16:32;-1.40;99.60
10314;DHT22;5202;49.138;10.090;2023-03-01T01:19:01;-1.40;99.60
10314;DHT22;5202;49.138;10.090;2023-03-01T01:21:29;-1.40;99.60
10314;DHT22;5202;49.138;10.090;2023-03-01T01:23:58;-1.30;99.70
10314;DHT22;5202;49.138;10.090;2023-03-01T01:26:28;-1.30;99.40
10314;DHT22;5202;49.138;10.090;2023-03-01T01:29:00;-1.20;99.10
10314;DHT22;5202;49.138;10.090;2023-03-01T01:31:31;-1.20;99.30
10314;DHT22;5202;49.138;10.090;2023-03-01T01:34:01;-1.20;99.20
10314;DHT22;5202;49.138;10.090;2023-03-01T01:36:31;-1.20;99.50
10314;DHT22;5202;49.138;10.090;2023-03-01T01:39:00;-1.20;99.30
10314;DHT22;5202;49.138;10.090;2023-03-01T01:41:29;-1.20;99.50
10314;DHT22;5202;49.138;10.090;2023-03-01T01:44:15;-1.20;99.10
10314;DHT22;5202;49.138;10.090;2023-03-01T01:46:49;-1.10;99.30
10314;DHT22;5202;49.138;10.090;2023-03-01T01:49:32;-1.10;99.20
10314;DHT22;5202;49.138;10.090;2023-03-01T01:52:10;-1.10;99.20
10314;DHT22;5202;49.138;10.090;2023-03-01T01:54:43;-1.10;99.00
10314;DHT22;5202;49.138;10.090;2023-03-01T01:57:16;-1.00;99.20
10314;DHT22;5202;49.138;10.090;2023-03-01T01:59:49;-1.00;99.10
10314;DHT22;5202;49.138;10.090;2023-03-01T02:02:19;-1.00;98.80
10314;DHT22;5202;49.138;10.090;2023-03-01T02:04:48;-0.90;98.80
10314;DHT22;5202;49.138;10.090;2023-03-01T02:07:20;-0.90;98.80
10314;DHT22;5202;49.138;10.090;2023-03-01T02:09:51;-0.90;98.90
10314;DHT22;5202;49.138;10.090;2023-03-01T02:12:23;-0.90;99.10
10314;DHT22;5202;49.138;10.090;2023-03-01T02:15:00;-0.90;99.10
10314;DHT22;5202;49.138;10.090;2023-03-01T02:17:29;-0.90;99.00
10314;DHT22;5202;49.138;10.090;2023-03-01T02:20:06;-0.90;99.00
10314;DHT22;5202;49.138;10.090;2023-03-01T02:22:43;-1.00;98.90
10314;DHT22;5202;49.138;10.090;2023-03-01T02:28:24;-1.00;99.10
10314;DHT22;5202;49.138;10.090;2023-03-01T02:31:03;-1.10;99.20
10314;DHT22;5202;49.138;10.090;2023-03-01T02:33:51;-1.00;99.30
10314;DHT22;5202;49.138;10.090;2023-03-01T02:36:23;-1.00;99.30
10314;DHT22;5202;49.138;10.090;2023-03-01T02:38:57;-1.00;99.30
10314;DHT22;5202;49.138;10.090;2023-03-01T02:41:29;-0.90;99.30
10314;DHT22;5202;49.138;10.090;2023-03-01T02:44:00;-1.00;99.10
10314;DHT22;5202;49.138;10.090;2023-03-01T02:46:29;-1.00;99.50
10314;DHT22;5202;49.138;10.090;2023-03-01T02:48:59;-0.90;99.70
10314;DHT22;5202;49.138;10.090;2023-03-01T02:51:38;-0.90;99.50
10314;DHT22;5202;49.138;10.090;2023-03-01T02:54:20;-0.90;99.40
10314;DHT22;5202;49.138;10.090;2023-03-01T02:56:51;-0.80;99.30
10314;DHT22;5202;49.138;10.090;2023-03-01T02:59:25;-0.80;99.30
10314;DHT22;5202;49.138;10.090;2023-03-01T03:01:56;-0.80;99.30
10314;DHT22;5202;49.138;10.090;2023-03-01T03:04:31;-0.80;99.00
10314;DHT22;5202;49.138;10.090;2023-03-01T03:07:03;-0.80;99.30
10314;DHT22;5202;49.138;10.090;2023-03-01T03:09:32;-0.80;99.10
10314;DHT22;5202;49.138;10.090;2023-03-01T03:12:00;-0.90;99.40
10314;DHT22;5202;49.138;10.090;2023-03-01T03:14:30;-0.90;99.60
10314;DHT22;5202;49.138;10.090;2023-03-01T03:17:01;-0.90;99.50
10314;DHT22;5202;49.138;10.090;2023-03-01T03:19:33;-0.90;99.50
10314;DHT22;5202;49.138;10.090;2023-03-01T03:22:01;-0.90;99.50
10314;DHT22;5202;49.138;10.090;2023-03-01T03:24:30;-0.90;99.50
10314;DHT22;5202;49.138;10.090;2023-03-01T03:27:04;-0.90;99.10
10314;DHT22;5202;49.138;10.090;2023-03-01T03:29:34;-0.90;99.40
10314;DHT22;5202;49.138;10.090;2023-03-01T03:32:03;-0.90;99.50
10314;DHT22;5202;49.138;10.090;2023-03-01T03:34:31;-0.90;99.10
10314;DHT22;5202;49.138;10.090;2023-03-01T03:37:00;-0.90;99.30
10314;DHT22;5202;49.138;10.090;2023-03-01T03:39:55;-0.90;99.20
10314;DHT22;5202;49.138;10.090;2023-03-01T03:42:24;-0.90;99.60
10314;DHT22;5202;49.138;10.090;2023-03-01T03:44:54;-0.90;99.10
10314;DHT22;5202;49.138;10.090;2023-03-01T03:47:22;-0.90;99.00
10314;DHT22;5202;49.138;10.090;2023-03-01T03:49:50;-0.90;99.00
10314;DHT22;5202;49.138;10.090;2023-03-01T03:52:19;-0.90;98.90
10314;DHT22;5202;49.138;10.090;2023-03-01T03:54:47;-0.90;99.00
10314;DHT22;5202;49.138;10.090;2023-03-01T03:57:15;-1.00;99.00
10314;DHT22;5202;49.138;10.090;2023-03-01T03:59:43;-1.00;99.00
10314;DHT22;5202;49.138;10.090;2023-03-01T04:02:13;-1.00;99.10
10314;DHT22;5202;49.138;10.090;2023-03-01T04:04:48;-1.10;99.10
10314;DHT22;5202;49.138;10.090;2023-03-01T04:07:17;-1.10;99.20
10314;DHT22;5202;49.138;10.090;2023-03-01T04:09:45;-1.10;99.30
10314;DHT22;5202;49.138;10.090;2023-03-01T04:12:13;-1.20;99.40
10314;DHT22;5202;49.138;10.090;2023-03-01T04:14:47;-1.20;99.40
10314;DHT22;5202;49.138;10.090;2023-03-01T04:17:16;-1.20;99.10
10314;DHT22;5202;49.138;10.090;2023-03-01T04:19:45;-1.20;99.10
10314;DHT22;5202;49.138;10.090;2023-03-01T04:22:15;-1.20;99.20
10314;DHT22;5202;49.138;10.090;2023-03-01T04:24:45;-1.30;99.20
10314;DHT22;5202;49.138;10.090;2023-03-01T04:27:13;-1.30;99.20
10314;DHT22;5202;49.138;10.090;2023-03-01T04:29:41;-1.30;99.20
10314;DHT22;5202;49.138;10.090;2023-03-01T04:32:09;-1.30;99.30
10314;DHT22;5202;49.138;10.090;2023-03-01T04:34:41;-1.30;99.20
10314;DHT22;5202;49.138;10.090;2023-03-01T04:37:10;-1.40;99.30
10314;DHT22;5202;49.138;10.090;2023-03-01T04:39:38;-1.40;99.60
10314;DHT22;5202;49.138;10.090;2023-03-01T04:42:12;-1.40;99.60
10314;DHT22;5202;49.138;10.090;2023-03-01T04:44:40;-1.40;99.50
10314;DHT22;5202;49.138;10.090;2023-03-01T04:47:09;-1.40;99.50
10314;DHT22;5202;49.138;10.090;2023-03-01T04:49:38;-1.50;99.40
10314;DHT22;5202;49.138;10.090;2023-03-01T04:52:08;-1.50;99.40
10314;DHT22;5202;49.138;10.090;2023-03-01T04:54:36;-1.50;99.20
10314;DHT22;5202;49.138;10.090;2023-03-01T04:57:04;-1.50;99.20
10314;DHT22;5202;49.138;10.090;2023-03-01T04:59:33;-1.50;99.40
10314;DHT22;5202;49.138;10.090;2023-03-01T05:02:03;-1.50;99.40
10314;DHT22;5202;49.138;10.090;2023-03-01T05:04:31;-1.50;99.10
10314;DHT22;5202;49.138;10.090;2023-03-01T05:07:05;-1.60;99.40
10314;DHT22;5202;49.138;10.090;2023-03-01T05:09:35;-1.60;99.40
10314;DHT22;5202;49.138;10.090;2023-03-01T05:12:04;-1.60;99.70
10314;DHT22;5202;49.138;10.090;2023-03-01T05:14:32;-1.70;99.50
10314;DHT22;5202;49.138;10.090;2023-03-01T05:17:01;-1.70;99.30
10314;DHT22;5202;49.138;10.090;2023-03-01T05:19:31;-1.70;99.70
10314;DHT22;5202;49.138;10.090;2023-03-01T05:21:59;-1.70;99.60
10314;DHT22;5202;49.138;10.090;2023-03-01T05:24:33;-1.70;99.50
10314;DHT22;5202;49.138;10.090;2023-03-01T05:27:03;-1.80;99.60
10314;DHT22;5202;49.138;10.090;2023-03-01T05:29:31;-1.80;99.60
10314;DHT22;5202;49.138;10.090;2023-03-01T05:32:02;-1.80;99.50
10314;DHT22;5202;49.138;10.090;2023-03-01T05:34:32;-1.90;99.90
10314;DHT22;5202;49.138;10.090;2023-03-01T05:37:02;-1.90;99.70
10314;DHT22;5202;49.138;10.090;2023-03-01T05:39:32;-1.90;99.90
10314;DHT22;5202;49.138;10.090;2023-03-01T05:42:02;-1.90;99.90
10314;DHT22;5202;49.138;10.090;2023-03-01T05:44:30;-2.00;99.90
10314;DHT22;5202;49.138;10.090;2023-03-01T05:46:59;-2.00;99.90
10314;DHT22;5202;49.138;10.090;2023-03-01T05:49:27;-2.00;99.80
10314;DHT22;5202;49.138;10.090;2023-03-01T05:51:55;-1.90;99.90
10314;DHT22;5202;49.138;10.090;2023-03-01T05:54:23;-2.00;99.90
10314;DHT22;5202;49.138;10.090;2023-03-01T05:56:52;-2.00;99.90
10314;DHT22;5202;49.138;10.090;2023-03-01T05:59:21;-2.00;99.90
10314;DHT22;5202;49.138;10.090;2023-03-01T06:01:50;-2.00;99.80
10314;DHT22;5202;49.138;10.090;2023-03-01T06:04:18;-2.00;99.70
10314;DHT22;5202;49.138;10.090;2023-03-01T06:06:46;-2.00;99.90
10314;DHT22;5202;49.138;10.090;2023-03-01T06:09:14;-2.00;99.60
10314;DHT22;5202;49.138;10.090;2023-03-01T06:11:43;-2.10;99.70
10314;DHT22;5202;49.138;10.090;2023-03-01T06:14:11;-2.10;99.90
10314;DHT22;5202;49.138;10.090;2023-03-01T06:16:42;-2.10;99.90
10314;DHT22;5202;49.138;10.090;2023-03-01T06:19:10;-2.10;99.90
10314;DHT22;5202;49.138;10.090;2023-03-01T06:21:40;-2.10;99.80
10314;DHT22;5202;49.138;10.090;2023-03-01T06:24:08;-2.10;99.90
10314;DHT22;5202;49.138;10.090;2023-03-01T06:26:36;-2.10;99.70
10314;DHT22;5202;49.138;10.090;2023-03-01T06:29:04;-2.10;99.80
10314;DHT22;5202;49.138;10.090;2023-03-01T06:31:33;-2.10;99.70
10314;DHT22;5202;49.138;10.090;2023-03-01T06:34:03;-2.10;99.90
10314;DHT22;5202;49.138;10.090;2023-03-01T06:36:31;-2.00;99.90
10314;DHT22;5202;49.138;10.090;2023-03-01T06:38:59;-2.00;99.80
10314;DHT22;5202;49.138;10.090;2023-03-01T06:41:27;-1.90;99.70
10314;DHT22;5202;49.138;10.090;2023-03-01T06:43:56;-2.00;99.60
10314;DHT22;5202;49.138;10.090;2023-03-01T06:46:24;-2.00;99.80
10314;DHT22;5202;49.138;10.090;2023-03-01T06:48:52;-1.90;99.80
10314;DHT22;5202;49.138;10.090;2023-03-01T06:51:22;-1.90;99.70
10314;DHT22;5202;49.138;10.090;2023-03-01T06:53:50;-1.80;99.80
10314;DHT22;5202;49.138;10.090;2023-03-01T06:56:19;-1.80;99.60
10314;DHT22;5202;49.138;10.090;2023-03-01T06:58:47;-1.70;99.50
10314;DHT22;5202;49.138;10.090;2023-03-01T07:01:15;-1.70;99.50
10314;DHT22;5202;49.138;10.090;2023-03-01T07:03:43;-1.60;99.10
10314;DHT22;5202;49.138;10.090;2023-03-01T07:06:15;-1.60;99.30
10314;DHT22;5202;49.138;10.090;2023-03-01T07:08:45;-1.60;99.00
10314;DHT22;5202;49.138;10.090;2023-03-01T07:11:14;-1.50;99.20
10314;DHT22;5202;49.138;10.090;2023-03-01T07:13:43;-1.50;99.10
10314;DHT22;5202;49.138;10.090;2023-03-01T07:16:11;-1.40;98.90
10314;DHT22;5202;49.138;10.090;2023-03-01T07:18:41;-1.40;98.90
10314;DHT22;5202;49.138;10.090;2023-03-01T07:21:12;-1.30;98.70
10314;DHT22;5202;49.138;10.090;2023-03-01T07:23:41;-1.20;98.80
10314;DHT22;5202;49.138;10.090;2023-03-01T07:26:11;-1.10;98.60
10314;DHT22;5202;49.138;10.090;2023-03-01T07:28:39;-1.00;98.80
10314;DHT22;5202;49.138;10.090;2023-03-01T07:31:08;-0.90;98.50
10314;DHT22;5202;49.138;10.090;2023-03-01T07:33:36;-0.80;98.20
10314;DHT22;5202;49.138;10.090;2023-03-01T07:36:05;-0.80;97.90
10314;DHT22;5202;49.138;10.090;2023-03-01T07:38:35;-0.80;97.90
10314;DHT22;5202;49.138;10.090;2023-03-01T07:41:03;-0.70;97.70
10314;DHT22;5202;49.138;10.090;2023-03-01T07:43:33;-0.60;97.90
10314;DHT22;5202;49.138;10.090;2023-03-01T07:46:03;-0.50;97.90
10314;DHT22;5202;49.138;10.090;2023-03-01T07:48:33;-0.40;97.40
10314;DHT22;5202;49.138;10.090;2023-03-01T07:51:03;-0.30;97.20
10314;DHT22;5202;49.138;10.090;2023-03-01T07:53:33;-0.20;97.20
10314;DHT22;5202;49.138;10.090;2023-03-01T07:56:04;-0.20;97.00
10314;DHT22;5202;49.138;10.090;2023-03-01T07:58:35;-0.10;97.10
10314;DHT22;5202;49.138;10.090;2023-03-01T08:01:06;0.10;96.90
10314;DHT22;5202;49.138;10.090;2023-03-01T08:03:36;0.20;96.80
10314;DHT22;5202;49.138;10.090;2023-03-01T08:06:07;0.20;96.70
10314;DHT22;5202;49.138;10.090;2023-03-01T08:08:37;0.30;95.90
10314;DHT22;5202;49.138;10.090;2023-03-01T08:11:07;0.40;96.30
10314;DHT22;5202;49.138;10.090;2023-03-01T08:13:39;0.50;96.10
10314;DHT22;5202;49.138;10.090;2023-03-01T08:16:10;0.60;96.20
10314;DHT22;5202;49.138;10.090;2023-03-01T08:18:40;0.70;96.10
10314;DHT22;5202;49.138;10.090;2023-03-01T08:21:11;0.70;96.00
10314;DHT22;5202;49.138;10.090;2023-03-01T08:23:41;0.80;95.70
10314;DHT22;5202;49.138;10.090;2023-03-01T08:26:11;0.90;95.50
10314;DHT22;5202;49.138;10.090;2023-03-01T08:28:43;1.00;95.90
10314;DHT22;5202;49.138;10.090;2023-03-01T08:31:16;1.10;95.10
10314;DHT22;5202;49.138;10.090;2023-03-01T08:33:47;1.20;95.50
10314;DHT22;5202;49.138;10.090;2023-03-01T08:36:18;1.40;95.00
10314;DHT22;5202;49.138;10.090;2023-03-01T08:38:47;1.50;94.80
10314;DHT22;5202;49.138;10.090;2023-03-01T08:41:16;1.50;94.60
10314;DHT22;5202;49.138;10.090;2023-03-01T08:43:46;1.50;94.40
10314;DHT22;5202;49.138;10.090;2023-03-01T08:46:15;1.60;94.70
10314;DHT22;5202;49.138;10.090;2023-03-01T08:48:43;1.70;94.80
10314;DHT22;5202;49.138;10.090;2023-03-01T08:51:14;1.80;94.40
10314;DHT22;5202;49.138;10.090;2023-03-01T08:53:43;1.80;94.30
10314;DHT22;5202;49.138;10.090;2023-03-01T08:56:12;1.90;94.10
10314;DHT22;5202;49.138;10.090;2023-03-01T08:58:44;1.90;94.20
10314;DHT22;5202;49.138;10.090;2023-03-01T09:01:15;2.00;94.80
10314;DHT22;5202;49.138;10.090;2023-03-01T09:03:48;2.10;95.00
10314;DHT22;5202;49.138;10.090;2023-03-01T09:06:18;2.30;94.20
10314;DHT22;5202;49.138;10.090;2023-03-01T09:08:47;2.50;94.40
10314;DHT22;5202;49.138;10.090;2023-03-01T09:11:19;2.50;93.20
10314;DHT22;5202;49.138;10.090;2023-03-01T09:13:50;2.60;93.40
10314;DHT22;5202;49.138;10.090;2023-03-01T09:16:20;2.70;93.70
10314;DHT22;5202;49.138;10.090;2023-03-01T09:18:50;2.70;93.30
10314;DHT22;5202;49.138;10.090;2023-03-01T09:21:20;2.80;93.70
10314;DHT22;5202;49.138;10.090;2023-03-01T09:24:06;2.90;92.90
10314;DHT22;5202;49.138;10.090;2023-03-01T09:26:35;3.00;92.70
10314;DHT22;5202;49.138;10.090;2023-03-01T09:29:04;3.10;92.90
10314;DHT22;5202;49.138;10.090;2023-03-01T09:31:32;3.20;92.20
10314;DHT22;5202;49.138;10.090;2023-03-01T09:34:01;3.30;92.50
10314;DHT22;5202;49.138;10.090;2023-03-01T09:36:29;3.40;91.90
10314;DHT22;5202;49.138;10.090;2023-03-01T09:38:58;3.50;92.40
10314;DHT22;5202;49.138;10.090;2023-03-01T09:41:36;3.50;91.40
10314;DHT22;5202;49.138;10.090;2023-03-01T09:44:18;3.50;91.40
10314;DHT22;5202;49.138;10.090;2023-03-01T09:46:52;3.70;92.00
10314;DHT22;5202;49.138;10.090;2023-03-01T09:49:24;3.80;91.70
10314;DHT22;5202;49.138;10.090;2023-03-01T09:52:00;3.90;92.00
10314;DHT22;5202;49.138;10.090;2023-03-01T09:54:32;4.10;92.50
10314;DHT22;5202;49.138;10.090;2023-03-01T09:57:11;4.30;91.90
10314;DHT22;5202;49.138;10.090;2023-03-01T09:59:56;4.40;91.10
10314;DHT22;5202;49.138;10.090;2023-03-01T10:02:39;4.50;90.80
10314;DHT22;5202;49.138;10.090;2023-03-01T10:05:26;4.60;90.60
10314;DHT22;5202;49.138;10.090;2023-03-01T10:08:14;4.80;90.80
10314;DHT22;5202;49.138;10.090;2023-03-01T10:10:53;4.80;90.30
10314;DHT22;5202;49.138;10.090;2023-03-01T10:13:25;5.00;90.10
10314;DHT22;5202;49.138;10.090;2023-03-01T10:16:00;5.10;90.30
10314;DHT22;5202;49.138;10.090;2023-03-01T10:18:33;5.30;90.90
10314;DHT22;5202;49.138;10.090;2023-03-01T10:21:13;5.40;90.50
10314;DHT22;5202;49.138;10.090;2023-03-01T10:23:44;5.50;88.50
10314;DHT22;5202;49.138;10.090;2023-03-01T10:26:24;5.60;88.40
10314;DHT22;5202;49.138;10.090;2023-03-01T10:29:02;5.70;88.40
10314;DHT22;5202;49.138;10.090;2023-03-01T10:31:41;5.80;87.40
10314;DHT22;5202;49.138;10.090;2023-03-01T10:34:14;5.80;86.30
10314;DHT22;5202;49.138;10.090;2023-03-01T10:36:48;5.90;86.00
10314;DHT22;5202;49.138;10.090;2023-03-01T10:39:20;6.00;86.60
10314;DHT22;5202;49.138;10.090;2023-03-01T10:42:01;6.10;84.50
10314;DHT22;5202;49.138;10.090;2023-03-01T10:44:38;6.20;85.50
10314;DHT22;5202;49.138;10.090;2023-03-01T10:47:18;6.40;85.50
10314;DHT22;5202;49.138;10.090;2023-03-01T10:49:53;6.50;86.80
10314;DHT22;5202;49.138;10.090;2023-03-01T10:52:29;6.80;86.80
10314;DHT22;5202;49.138;10.090;2023-03-01T10:55:02;6.80;84.80
10314;DHT22;5202;49.138;10.090;2023-03-01T10:57:38;7.00;85.20
10314;DHT22;5202;49.138;10.090;2023-03-01T11:00:25;7.00;85.40
10314;DHT22;5202;49.138;10.090;2023-03-01T11:03:13;7.10;85.60
10314;DHT22;5202;49.138;10.090;2023-03-01T11:05:59;7.20;84.80
10314;DHT22;5202;49.138;10.090;2023-03-01T11:08:35;7.30;84.40
10314;DHT22;5202;49.138;10.090;2023-03-01T11:11:13;7.50;83.80
10314;DHT22;5202;49.138;10.090;2023-03-01T11:13:52;7.50;82.50
10314;DHT22;5202;49.138;10.090;2023-03-01T11:16:34;7.50;82.20
10314;DHT22;5202;49.138;10.090;2023-03-01T11:19:15;7.50;83.20
10314;DHT22;5202;49.138;10.090;2023-03-01T11:21:55;7.60;80.90
10314;DHT22;5202;49.138;10.090;2023-03-01T11:24:37;7.60;82.50
10314;DHT22;5202;49.138;10.090;2023-03-01T11:27:19;7.70;80.90
10314;DHT22;5202;49.138;10.090;2023-03-01T11:29:52;7.70;78.80
10314;DHT22;5202;49.138;10.090;2023-03-01T11:32:25;7.70;79.20
10314;DHT22;5202;49.138;10.090;2023-03-01T11:35:00;7.80;79.90
10314;DHT22;5202;49.138;10.090;2023-03-01T11:37:36;8.00;79.20
10314;DHT22;5202;49.138;10.090;2023-03-01T11:40:23;8.10;79.10
10314;DHT22;5202;49.138;10.090;2023-03-01T11:42:59;8.20;78.60
10314;DHT22;5202;49.138;10.090;2023-03-01T11:45:53;8.10;77.00
10314;DHT22;5202;49.138;10.090;2023-03-01T11:48:51;8.10;77.40
10314;DHT22;5202;49.138;10.090;2023-03-01T11:51:38;8.10;77.50
10314;DHT22;5202;49.138;10.090;2023-03-01T11:54:21;8.30;78.70
10314;DHT22;5202;49.138;10.090;2023-03-01T11:57:00;8.60;78.50
10314;DHT22;5202;49.138;10.090;2023-03-01T12:06:20;9.10;75.50
10314;DHT22;5202;49.138;10.090;2023-03-01T12:09:02;9.10;76.10
10314;DHT22;5202;49.138;10.090;2023-03-01T12:11:56;9.10;75.00
10314;DHT22;5202;49.138;10.090;2023-03-01T12:14:47;9.40;77.50
10314;DHT22;5202;49.138;10.090;2023-03-01T12:17:47;9.50;74.70
10314;DHT22;5202;49.138;10.090;2023-03-01T12:20:30;9.70;75.50
10314;DHT22;5202;49.138;10.090;2023-03-01T12:23:20;9.70;72.80
10314;DHT22;5202;49.138;10.090;2023-03-01T12:26:03;9.60;73.30
10314;DHT22;5202;49.138;10.090;2023-03-01T12:28:54;9.70;73.70
10314;DHT22;5202;49.138;10.090;2023-03-01T12:31:48;9.90;74.90
10314;DHT22;5202;49.138;10.090;2023-03-01T12:34:35;10.20;73.90
10314;DHT22;5202;49.138;10.090;2023-03-01T12:37:20;10.30;71.90
10314;DHT22;5202;49.138;10.090;2023-03-01T12:40:11;10.30;71.00
10314;DHT22;5202;49.138;10.090;2023-03-01T12:42:55;10.30;70.50
10314;DHT22;5202;49.138;10.090;2023-03-01T12:45:39;10.40;69.80
10314;DHT22;5202;49.138;10.090;2023-03-01T12:48:39;10.20;70.20
10314;DHT22;5202;49.138;10.090;2023-03-01T12:51:14;10.20;70.10
10314;DHT22;5202;49.138;10.090;2023-03-01T12:53:46;10.20;68.90
10314;DHT22;5202;49.138;10.090;2023-03-01T12:56:19;10.20;70.40
10314;DHT22;5202;49.138;10.090;2023-03-01T12:58:59;10.50;69.50
10314;DHT22;5202;49.138;10.090;2023-03-01T13:01:45;10.70;69.40
10314;DHT22;5202;49.138;10.090;2023-03-01T13:04:33;10.80;68.40
10314;DHT22;5202;49.138;10.090;2023-03-01T13:07:16;10.50;68.30
10314;DHT22;5202;49.138;10.090;2023-03-01T13:09:56;10.70;68.90
10314;DHT22;5202;49.138;10.090;2023-03-01T13:12:51;10.70;68.90
10314;DHT22;5202;49.138;10.090;2023-03-01T13:15:33;10.50;66.30
10314;DHT22;5202;49.138;10.090;2023-03-01T13:18:11;10.50;67.20
10314;DHT22;5202;49.138;10.090;2023-03-01T13:20:57;10.60;68.40
10314;DHT22;5202;49.138;10.090;2023-03-01T13:23:29;10.70;66.60
10314;DHT22;5202;49.138;10.090;2023-03-01T13:26:14;10.80;65.70
10314;DHT22;5202;49.138;10.090;2023-03-01T13:28:56;11.00;67.00
10314;DHT22;5202;49.138;10.090;2023-03-01T13:32:01;11.20;65.60
10314;DHT22;5202;49.138;10.090;2023-03-01T13:34:59;11.50;65.20
10314;DHT22;5202;49.138;10.090;2023-03-01T13:37:36;11.40;63.80
10314;DHT22;5202;49.138;10.090;2023-03-01T13:43:30;11.80;62.90
10314;DHT22;5202;49.138;10.090;2023-03-01T13:46:00;12.10;63.70
10314;DHT22;5202;49.138;10.090;2023-03-01T13:48:33;12.20;63.70
10314;DHT22;5202;49.138;10.090;2023-03-01T13:51:03;12.00;60.90
10314;DHT22;5202;49.138;10.090;2023-03-01T13:53:37;12.20;62.40
10314;DHT22;5202;49.138;10.090;2023-03-01T13:56:10;12.40;61.20
10314;DHT22;5202;49.138;10.090;2023-03-01T13:58:49;12.50;60.30
10314;DHT22;5202;49.138;10.090;2023-03-01T14:01:22;12.40;60.00
10314;DHT22;5202;49.138;10.090;2023-03-01T14:03:54;12.30;59.60
10314;DHT22;5202;49.138;10.090;2023-03-01T14:06:24;12.30;59.90
10314;DHT22;5202;49.138;10.090;2023-03-01T14:09:03;12.30;59.70
10314;DHT22;5202;49.138;10.090;2023-03-01T14:11:55;12.30;59.60
10314;DHT22;5202;49.138;10.090;2023-03-01T14:14:51;12.40;59.70
10314;DHT22;5202;49.138;10.090;2023-03-01T14:17:38;12.50;59.20
10314;DHT22;5202;49.138;10.090;2023-03-01T14:20:16;12.40;57.10
10314;DHT22;5202;49.138;10.090;2023-03-01T14:22:47;12.40;57.80
10314;DHT22;5202;49.138;10.090;2023-03-01T14:25:21;12.50;58.30
10314;DHT22;5202;49.138;10.090;2023-03-01T14:27:55;12.70;57.70
10314;DHT22;5202;49.138;10.090;2023-03-01T14:30:27;12.70;56.40
10314;DHT22;5202;49.138;10.090;2023-03-01T14:33:02;12.80;57.80
10314;DHT22;5202;49.138;10.090;2023-03-01T14:35:35;12.90;58.00
10314;DHT22;5202;49.138;10.090;2023-03-01T14:38:04;13.10;57.50
10314;DHT22;5202;49.138;10.090;2023-03-01T14:40:34;13.20;56.80
10314;DHT22;5202;49.138;10.090;2023-03-01T14:43:11;13.30;57.00
10314;DHT22;5202;49.138;10.090;2023-03-01T14:45:47;13.50;56.40
10314;DHT22;5202;49.138;10.090;2023-03-01T14:48:17;13.50;55.40
10314;DHT22;5202;49.138;10.090;2023-03-01T14:50:48;13.20;55.60
10314;DHT22;5202;49.138;10.090;2023-03-01T14:53:18;13.20;56.30
10314;DHT22;5202;49.138;10.090;2023-03-01T14:55:51;13.20;55.10
10314;DHT22;5202;49.138;10.090;2023-03-01T14:58:23;13.00;56.00
10314;DHT22;5202;49.138;10.090;2023-03-01T15:00:54;13.10;55.30
10314;DHT22;5202;49.138;10.090;2023-03-01T15:03:27;12.80;55.80
10314;DHT22;5202;49.138;10.090;2023-03-01T15:06:02;12.60;55.90
10314;DHT22;5202;49.138;10.090;2023-03-01T15:08:32;12.80;56.10
10314;DHT22;5202;49.138;10.090;2023-03-01T15:11:03;13.50;56.40
10314;DHT22;5202;49.138;10.090;2023-03-01T15:13:35;13.90;55.80
10314;DHT22;5202;49.138;10.090;2023-03-01T15:16:06;14.00;54.00
10314;DHT22;5202;49.138;10.090;2023-03-01T15:18:37;13.90;54.50
10314;DHT22;5202;49.138;10.090;2023-03-01T15:21:09;13.70;54.50
10314;DHT22;5202;49.138;10.090;2023-03-01T15:23:49;13.40;54.10
10314;DHT22;5202;49.138;10.090;2023-03-01T15:26:26;13.50;54.90
10314;DHT22;5202;49.138;10.090;2023-03-01T15:28:59;13.60;54.30
10314;DHT22;5202;49.138;10.090;2023-03-01T15:31:30;13.50;54.80
10314;DHT22;5202;49.138;10.090;2023-03-01T15:34:29;13.80;55.50
10314;DHT22;5202;49.138;10.090;2023-03-01T15:37:01;14.30;53.70
10314;DHT22;5202;49.138;10.090;2023-03-01T15:39:36;14.10;52.70
10314;DHT22;5202;49.138;10.090;2023-03-01T15:42:08;14.00;53.80
10314;DHT22;5202;49.138;10.090;2023-03-01T15:44:40;13.60;53.40
10314;DHT22;5202;49.138;10.090;2023-03-01T15:47:27;13.70;54.30
10314;DHT22;5202;49.138;10.090;2023-03-01T15:49:58;13.80;54.00
10314;DHT22;5202;49.138;10.090;2023-03-01T15:52:32;13.80;53.10
10314;DHT22;5202;49.138;10.090;2023-03-01T15:55:15;13.20;53.70
10314;DHT22;5202;49.138;10.090;2023-03-01T15:57:44;13.50;54.90
10314;DHT22;5202;49.138;10.090;2023-03-01T16:00:14;13.20;54.00
10314;DHT22;5202;49.138;10.090;2023-03-01T16:02:44;13.30;54.30
10314;DHT22;5202;49.138;10.090;2023-03-01T16:05:19;13.30;54.40
10314;DHT22;5202;49.138;10.090;2023-03-01T16:07:50;12.80;54.20
10314;DHT22;5202;49.138;10.090;2023-03-01T16:10:20;12.50;54.70
10314;DHT22;5202;49.138;10.090;2023-03-01T16:12:49;12.50;55.80
10314;DHT22;5202;49.138;10.090;2023-03-01T16:15:22;12.70;56.60
10314;DHT22;5202;49.138;10.090;2023-03-01T16:17:51;12.80;55.30
10314;DHT22;5202;49.138;10.090;2023-03-01T16:20:23;12.80;55.90
10314;DHT22;5202;49.138;10.090;2023-03-01T16:22:59;13.00;56.40
10314;DHT22;5202;49.138;10.090;2023-03-01T16:25:29;13.00;56.20
10314;DHT22;5202;49.138;10.090;2023-03-01T16:27:59;12.80;56.40